Terminal Aerodrome Forecast
Issued by NWS

Home | Current Version | Previous Version | Text Only | Print | Product List | Glossary On
Versions: 1 2 3 4 5 6 7 8 9 10 11 12
013
FTUS42 TJSJ 220520
TAFNCM
TAF
TNCM 220520Z 2206/2306 08006KT P6SM FEW022
     FM221450 12010KT P6SM FEW022
     FM222300 09006KT P6SM FEW019=

USA.gov is the U.S. government's official web portal to all federal, state and local government web resources and services.